Time;durP1;ratioP1;P1;durP2;ratioP2;P2;SDS_P1;SDS_P2;PMS_P1;PMS_P2;Temp;Humidity;BMP_temperature;BMP_pressure;BME280_temperature;BME280_humidity;BME280_pressure;Samples;Min_cycle;Max_cycle;Signal;HPM_P1;HPM_P2
2022/10/21 00:01:04;;;;;;;10.00;6.88;;;;;;;7.14;64.40;95671.69;5086089;28;20073;-70
2022/10/21 00:03:29;;;;;;;9.98;6.72;;;;;;;7.19;64.70;95675.75;5087041;28;20360;-70
2022/10/21 00:05:55;;;;;;;8.57;7.28;;;;;;;7.07;65.20;95680.69;5068301;28;20112;-70
2022/10/21 00:08:21;;;;;;;9.57;7.28;;;;;;;7.06;64.99;95662.72;5085422;28;20139;-70
2022/10/21 00:10:50;;;;;;;9.40;7.10;;;;;;;7.15;64.56;95683.69;5066534;28;20046;-70
2022/10/21 00:13:16;;;;;;;9.40;6.82;;;;;;;6.97;64.73;95663.22;5066497;28;20040;-69
2022/10/21 00:15:41;;;;;;;8.10;6.63;;;;;;;7.03;64.98;95678.38;5086493;28;20032;-70
2022/10/21 00:18:09;;;;;;;8.45;6.53;;;;;;;7.07;64.58;95680.69;5085419;28;20038;-70
2022/10/21 00:20:35;;;;;;;8.48;6.78;;;;;;;7.04;64.59;95678.28;5065448;28;20028;-70
2022/10/21 00:23:00;;;;;;;7.43;6.60;;;;;;;6.87;65.20;95678.38;5067944;28;20070;-70
2022/10/21 00:25:26;;;;;;;9.25;6.80;;;;;;;6.90;64.79;95673.88;5078650;28;20421;-70
2022/10/21 00:27:51;;;;;;;9.73;6.47;;;;;;;6.85;64.79;95664.72;5067706;28;20098;-71
2022/10/21 00:30:17;;;;;;;8.57;6.30;;;;;;;6.79;65.18;95673.63;5067252;28;20020;-71
2022/10/21 00:32:42;;;;;;;7.40;6.20;;;;;;;6.64;65.49;95664.13;5083765;28;20047;-70
2022/10/21 00:35:08;;;;;;;8.50;6.65;;;;;;;6.76;65.12;95681.53;5084405;28;20038;-71
2022/10/21 00:37:33;;;;;;;8.75;6.95;;;;;;;6.53;65.75;95672.44;5084879;28;20413;-71
2022/10/21 00:39:59;;;;;;;9.27;6.57;;;;;;;6.51;66.36;95679.44;5083306;28;20103;-71
2022/10/21 00:42:31;;;;;;;10.10;7.03;;;;;;;6.58;66.08;95679.97;5083704;28;20494;-70
2022/10/21 00:45:05;;;;;;;12.15;7.13;;;;;;;6.58;65.99;95675.63;5068790;28;20520;-70
2022/10/21 00:47:40;;;;;;;12.38;6.75;;;;;;;6.58;65.71;95667.88;5084602;28;20039;-71
2022/10/21 00:50:08;;;;;;;9.00;6.95;;;;;;;6.46;66.05;95673.69;5068857;28;20094;-71
2022/10/21 00:52:33;;;;;;;9.55;7.18;;;;;;;6.46;66.08;95665.94;5067960;28;20469;-71
2022/10/21 00:55:00;;;;;;;10.48;6.97;;;;;;;6.45;66.03;95666.88;5082723;28;20020;-70
2022/10/21 00:57:25;;;;;;;10.85;7.40;;;;;;;5.99;67.55;95656.34;5066324;28;20036;-70
2022/10/21 00:59:53;;;;;;;11.20;6.60;;;;;;;6.18;67.34;95667.38;5084130;28;20035;-70
2022/10/21 01:02:18;;;;;;;8.95;6.20;;;;;;;6.30;67.04;95659.94;5082713;28;20036;-70
2022/10/21 01:04:44;;;;;;;10.98;6.90;;;;;;;6.20;67.32;95657.00;5087137;28;20575;-70
2022/10/21 01:07:09;;;;;;;8.88;6.70;;;;;;;6.20;67.06;95650.09;5084906;28;20064;-70
2022/10/21 01:09:35;;;;;;;9.48;7.18;;;;;;;6.31;66.70;95648.69;5066785;28;20513;-71
2022/10/21 01:12:01;;;;;;;10.20;6.47;;;;;;;6.39;66.58;95646.53;5082314;28;20032;-70
2022/10/21 01:14:45;;;;;;;8.60;6.75;;;;;;;6.51;66.09;95656.19;5081191;28;20032;-71
2022/10/21 01:17:29;;;;;;;9.85;7.05;;;;;;;6.31;66.95;95659.03;5083147;28;20496;-70
2022/10/21 01:20:22;;;;;;;10.60;7.28;;;;;;;6.36;66.67;95655.28;5085335;28;20028;-71
2022/10/21 01:23:09;;;;;;;11.40;7.13;;;;;;;6.28;66.98;95662.59;5088666;28;20024;-70
2022/10/21 01:25:44;;;;;;;9.43;7.15;;;;;;;6.17;67.45;95652.81;5082551;28;20039;-70
2022/10/21 01:28:31;;;;;;;8.23;6.95;;;;;;;6.32;67.06;95655.50;5089602;28;20044;-70
2022/10/21 01:30:57;;;;;;;10.90;7.63;;;;;;;6.34;67.13;95659.69;5088936;28;20508;-70
2022/10/21 01:33:22;;;;;;;9.18;7.28;;;;;;;6.32;67.47;95655.50;5090256;28;20073;-70
2022/10/21 01:35:57;;;;;;;10.32;7.88;;;;;;;6.33;67.27;95658.03;5086318;28;20031;-70
2022/10/21 01:38:33;;;;;;;11.57;7.80;;;;;;;6.38;67.37;95657.75;5082320;28;20028;-70
2022/10/21 01:41:04;;;;;;;8.95;6.72;;;;;;;6.36;67.65;95662.19;5085768;28;20023;-70
2022/10/21 01:43:37;;;;;;;;;;;;;;;6.41;67.53;95666.19;5088153;28;20438;-70
2022/10/21 01:46:12;;;;;;;10.55;7.68;;;;;;;6.33;68.15;95663.19;5087000;28;20000;-70
2022/10/21 01:48:40;;;;;;;16.23;7.68;;;;;;;6.39;67.94;95659.44;5084972;28;20494;-70
2022/10/21 01:51:06;;;;;;;14.80;8.15;;;;;;;6.37;68.10;95664.69;5069149;28;20532;-70
2022/10/21 01:53:43;;;;;;;11.90;7.57;;;;;;;6.46;67.90;95658.19;5084908;28;20124;-70
2022/10/21 01:56:09;;;;;;;10.50;7.43;;;;;;;6.44;67.82;95666.03;5070323;28;20016;-71
2022/10/21 01:58:35;;;;;;;10.50;7.80;;;;;;;6.46;67.87;95655.63;5070326;28;20409;-70
2022/10/21 02:01:00;;;;;;;10.60;7.35;;;;;;;6.61;67.63;95670.31;5069479;28;20463;-71
2022/10/21 02:03:28;;;;;;;11.60;7.63;;;;;;;6.56;67.50;95656.78;5083020;28;20185;-70
2022/10/21 02:05:54;;;;;;;9.88;7.65;;;;;;;6.53;67.29;95664.72;5053303;28;20086;-70
2022/10/21 02:08:19;;;;;;;10.23;7.97;;;;;;;6.59;67.47;95677.28;5068551;28;20048;-70
2022/10/21 02:10:47;;;;;;;11.15;8.05;;;;;;;6.57;67.41;95676.53;5085043;28;20032;-70
2022/10/21 02:13:15;;;;;;;10.38;7.72;;;;;;;6.46;67.55;95673.69;5069442;28;20060;-70
2022/10/21 02:15:41;;;;;;;11.95;8.13;;;;;;;6.41;67.79;95680.84;5062789;28;20036;-70
2022/10/21 02:18:09;;;;;;;11.52;7.70;;;;;;;6.38;67.88;95670.66;5067766;28;20405;-70
2022/10/21 02:20:40;;;;;;;9.70;7.38;;;;;;;6.35;68.12;95681.16;5086095;28;20039;-70
2022/10/21 02:23:05;;;;;;;10.32;7.65;;;;;;;6.13;68.74;95664.22;5070637;28;20516;-70
2022/10/21 02:25:32;;;;;;;10.82;7.75;;;;;;;6.33;68.51;95685.59;5068421;28;20032;-70
2022/10/21 02:27:58;;;;;;;11.27;8.32;;;;;;;6.24;68.74;95664.50;5070416;28;20040;-70
2022/10/21 02:30:23;;;;;;;12.38;7.82;;;;;;;6.32;68.65;95678.75;5067045;28;20028;-70
2022/10/21 02:33:07;;;;;;;10.70;8.07;;;;;;;6.24;69.18;95685.16;5050264;28;21407;-70
2022/10/21 02:35:46;;;;;;;12.43;8.25;;;;;;;6.31;69.00;95685.66;5088038;28;20169;-70
2022/10/21 02:38:31;;;;;;;12.25;8.00;;;;;;;6.42;68.77;95688.50;5087004;28;20048;-70
2022/10/21 02:40:59;;;;;;;10.02;7.63;;;;;;;6.49;68.19;95686.41;5085086;28;20024;-70
2022/10/21 02:43:27;;;;;;;10.30;7.65;;;;;;;6.43;68.64;95679.00;5085441;28;20111;-70
2022/10/21 02:45:54;;;;;;;10.15;7.28;;;;;;;6.43;69.03;95684.16;5070618;28;20549;-70
2022/10/21 02:48:19;;;;;;;10.70;8.18;;;;;;;6.56;68.82;95690.34;5067557;28;20040;-70
2022/10/21 02:50:45;;;;;;;12.75;8.48;;;;;;;6.46;69.07;95679.69;5085676;28;20412;-70
2022/10/21 02:53:10;;;;;;;11.02;8.35;;;;;;;6.52;68.86;95682.84;5069528;28;20036;-70
2022/10/21 02:55:35;;;;;;;14.55;8.55;;;;;;;6.48;68.76;95677.03;5069588;28;20066;-70
2022/10/21 02:58:01;;;;;;;12.27;8.60;;;;;;;6.58;68.83;95688.53;5087830;28;20039;-70
2022/10/21 03:00:26;;;;;;;12.05;8.27;;;;;;;6.42;69.66;95677.34;5086323;28;20024;-70
2022/10/21 03:02:52;;;;;;;10.45;8.02;;;;;;;6.62;69.16;95689.19;5086908;28;20044;-70
2022/10/21 03:05:17;;;;;;;12.80;9.45;;;;;;;6.39;68.90;95652.53;5085546;28;20020;-70
2022/10/21 03:07:43;;;;;;;13.18;8.95;;;;;;;6.67;68.46;95688.03;5088410;28;20028;-70
2022/10/21 03:10:08;;;;;;;13.25;8.82;;;;;;;6.61;68.74;95687.53;5085646;28;20394;-70
2022/10/21 03:12:34;;;;;;;10.15;8.10;;;;;;;6.62;68.64;95689.19;5085811;28;20039;-70
2022/10/21 03:14:59;;;;;;;12.05;8.20;;;;;;;6.68;68.51;95689.69;5084537;28;20451;-70
2022/10/21 03:17:24;;;;;;;13.20;9.05;;;;;;;6.56;68.89;95680.03;5069716;28;20048;-70
2022/10/21 03:19:50;;;;;;;11.65;8.07;;;;;;;6.59;68.94;95695.34;5087308;28;20058;-70
2022/10/21 03:22:15;;;;;;;14.00;8.63;;;;;;;6.63;69.09;95703.75;5085699;28;20036;-70
2022/10/21 03:24:41;;;;;;;13.55;9.57;;;;;;;6.41;70.03;95707.50;5081051;28;20032;-70
2022/10/21 03:27:06;;;;;;;14.15;9.77;;;;;;;6.39;70.39;95704.16;5086124;28;20490;-70
2022/10/21 03:29:32;;;;;;;13.65;9.77;;;;;;;6.24;71.34;95694.63;5084720;28;20039;-70
2022/10/21 03:31:57;;;;;;;13.18;9.70;;;;;;;6.23;71.46;95705.84;5052976;28;20494;-70
2022/10/21 03:34:23;;;;;;;13.52;9.35;;;;;;;6.26;71.21;95703.94;5086682;28;20032;-70
2022/10/21 03:36:48;;;;;;;14.15;9.30;;;;;;;6.33;71.11;95703.66;5086450;28;20028;-70
2022/10/21 03:39:14;;;;;;;15.48;9.52;;;;;;;6.41;70.74;95706.66;5084917;28;20482;-70
2022/10/21 03:41:39;;;;;;;13.07;9.38;;;;;;;6.45;70.25;95703.00;5068897;28;20040;-70
2022/10/21 03:44:05;;;;;;;14.05;9.73;;;;;;;6.45;69.75;95696.09;5081470;28;20094;-70
2022/10/21 03:46:30;;;;;;;14.30;9.05;;;;;;;6.53;69.46;95703.44;5051670;28;20052;-70
2022/10/21 03:48:55;;;;;;;12.82;8.73;;;;;;;6.49;69.72;95700.19;5086965;28;20059;-70
2022/10/21 03:51:21;;;;;;;12.07;8.73;;;;;;;6.47;69.86;95706.34;5079315;28;20028;-70
2022/10/21 03:53:46;;;;;;;14.45;8.63;;;;;;;6.58;69.27;95704.03;5085608;28;20028;-70
2022/10/21 03:56:12;;;;;;;12.90;9.02;;;;;;;6.55;68.93;95711.94;5085089;28;20036;-70
2022/10/21 03:58:37;;;;;;;12.82;8.90;;;;;;;6.52;69.09;95709.53;5086697;28;20412;-70
2022/10/21 04:01:03;;;;;;;12.32;8.85;;;;;;;6.50;68.52;95698.44;5083915;28;20055;-72
2022/10/21 04:03:28;;;;;;;10.40;7.82;;;;;;;6.47;68.32;95699.44;5084782;28;20032;-70
2022/10/21 04:05:54;;;;;;;13.90;9.23;;;;;;;6.37;69.11;95700.81;5067529;28;20512;-71
2022/10/21 04:08:19;;;;;;;12.80;8.88;;;;;;;6.34;69.42;95700.16;5082593;28;20059;-70
2022/10/21 04:10:45;;;;;;;12.35;8.80;;;;;;;6.15;68.96;95695.94;5063851;28;20027;-70
2022/10/21 04:13:11;;;;;;;12.23;8.68;;;;;;;6.19;69.02;95712.94;5069300;28;21164;-70
2022/10/21 04:15:36;;;;;;;13.15;10.07;;;;;;;5.94;69.11;95692.72;5067602;28;20051;-70
2022/10/21 04:18:02;;;;;;;13.15;9.95;;;;;;;5.90;69.21;95706.63;5086195;28;20324;-70
2022/10/21 04:20:27;;;;;;;11.80;8.93;;;;;;;5.89;68.87;95710.13;5068073;28;20032;-71
2022/10/21 04:22:52;;;;;;;14.35;9.77;;;;;;;5.81;68.87;95718.22;5075305;28;20047;-70
2022/10/21 04:25:18;;;;;;;13.75;9.27;;;;;;;5.64;68.98;95707.94;5070877;28;20326;-70
2022/10/21 04:27:43;;;;;;;12.80;9.60;;;;;;;5.58;68.83;95714.22;5074447;28;20047;-70
2022/10/21 04:30:09;;;;;;;14.75;9.70;;;;;;;5.55;68.39;95711.78;5079032;28;20382;-70
2022/10/21 04:32:34;;;;;;;12.43;9.27;;;;;;;5.47;68.46;95702.78;5091141;28;20401;-70
2022/10/21 04:35:00;;;;;;;12.82;9.77;;;;;;;5.34;68.50;95693.03;5079099;28;20460;-70
2022/10/21 04:37:25;;;;;;;11.88;9.20;;;;;;;5.43;68.16;95709.78;5069636;28;20028;-70
2022/10/21 04:39:51;;;;;;;11.80;9.00;;;;;;;5.34;68.41;95711.06;5052821;28;20040;-70
2022/10/21 04:42:16;;;;;;;12.77;9.52;;;;;;;5.12;68.40;95707.84;5036193;28;20033;-70
2022/10/21 04:44:42;;;;;;;12.52;9.40;;;;;;;5.13;68.62;95706.97;5069546;28;20496;-70
2022/10/21 04:47:07;;;;;;;11.43;8.60;;;;;;;5.11;68.47;95711.34;5069562;28;20029;-70
2022/10/21 04:49:32;;;;;;;13.20;9.25;;;;;;;4.98;68.69;95694.78;5083093;28;20038;-70
2022/10/21 04:51:58;;;;;;;14.20;9.57;;;;;;;4.82;69.31;95700.66;5077983;28;20097;-70
2022/10/21 04:54:23;;;;;;;15.70;9.77;;;;;;;4.87;69.34;95709.00;5091380;28;20028;-70
2022/10/21 04:56:49;;;;;;;14.10;9.43;;;;;;;4.57;69.17;95677.78;5080086;28;20493;-69
2022/10/21 04:59:14;;;;;;;16.45;9.98;;;;;;;4.67;69.80;95706.50;5077381;28;20020;-70
2022/10/21 05:01:40;;;;;;;12.68;9.70;;;;;;;4.64;69.91;95709.22;5094451;28;20115;-70
2022/10/21 05:04:06;;;;;;;15.18;9.60;;;;;;;4.63;69.93;95705.00;5094729;28;20027;-70
2022/10/21 05:06:31;;;;;;;13.25;9.60;;;;;;;4.55;69.97;95701.94;5074710;28;20336;-70
2022/10/21 05:08:56;;;;;;;14.23;9.65;;;;;;;4.57;69.94;95716.41;5094460;28;20066;-70
2022/10/21 05:11:22;;;;;;;18.02;9.98;;;;;;;4.45;70.06;95711.78;5092704;28;20050;-70
2022/10/21 05:13:47;;;;;;;15.55;9.68;;;;;;;4.40;70.30;95709.44;5093358;28;20478;-70
2022/10/21 05:16:13;;;;;;;15.40;10.48;;;;;;;4.34;70.45;95706.28;5077396;28;20070;-70
2022/10/21 05:18:38;;;;;;;15.80;10.35;;;;;;;4.39;70.68;95718.03;5073027;28;20086;-70
2022/10/21 05:21:04;;;;;;;14.10;10.10;;;;;;;4.32;71.01;95711.50;5073836;28;20417;-70
2022/10/21 05:23:29;;;;;;;16.88;10.73;;;;;;;4.27;70.88;95723.72;5064245;28;20032;-70
2022/10/21 05:25:55;;;;;;;13.23;9.90;;;;;;;4.24;70.71;95716.16;5090585;28;20035;-71
2022/10/21 05:28:21;;;;;;;18.58;11.00;;;;;;;4.21;70.83;95721.44;5070976;28;20043;-70
2022/10/21 05:30:46;;;;;;;14.82;10.43;;;;;;;4.11;71.46;95718.41;5071217;28;20447;-71
2022/10/21 05:33:12;;;;;;;17.50;11.15;;;;;;;4.20;71.59;95728.28;5064133;28;20075;-72
2022/10/21 05:35:37;;;;;;;15.57;11.32;;;;;;;4.18;71.98;95729.25;5073691;28;20090;-70
2022/10/21 05:38:03;;;;;;;17.00;11.95;;;;;;;4.08;72.29;95689.41;5055340;28;20481;-70
2022/10/21 05:40:29;;;;;;;16.13;11.10;;;;;;;4.21;72.59;95737.69;5077218;28;20025;-70
2022/10/21 05:42:54;;;;;;;15.35;11.35;;;;;;;4.26;72.19;95727.19;5060990;28;20108;-70
2022/10/21 05:45:20;;;;;;;16.52;12.07;;;;;;;4.39;72.43;95740.34;5082019;28;20489;-70
2022/10/21 05:47:45;;;;;;;16.13;11.38;;;;;;;4.34;73.03;95743.13;5082713;28;20452;-71
2022/10/21 05:50:11;;;;;;;15.80;10.55;;;;;;;4.35;72.02;95743.97;5066613;28;20055;-69
2022/10/21 05:52:37;;;;;;;15.32;10.45;;;;;;;4.41;72.07;95738.56;5066690;28;20040;-70
2022/10/21 05:55:03;;;;;;;16.40;11.63;;;;;;;4.33;72.64;95741.47;5091228;28;20039;-70
2022/10/21 05:57:31;;;;;;;16.17;11.25;;;;;;;4.45;72.95;95745.22;5074140;28;20132;-70
2022/10/21 05:59:57;;;;;;;16.85;10.52;;;;;;;4.41;73.20;95739.38;5058895;28;20039;-70
2022/10/21 06:02:22;;;;;;;14.65;11.05;;;;;;;4.45;73.47;95747.78;5090348;28;20413;-70
2022/10/21 06:04:48;;;;;;;18.35;10.65;;;;;;;4.48;73.52;95751.09;5073321;28;20024;-70
2022/10/21 06:07:13;;;;;;;14.93;10.38;;;;;;;4.43;73.75;95755.59;5090340;28;20036;-70
2022/10/21 06:09:39;;;;;;;14.02;10.15;;;;;;;4.54;73.61;95755.13;5091681;28;20158;-70
2022/10/21 06:12:05;;;;;;;15.38;10.10;;;;;;;4.53;73.89;95761.16;5091599;28;20052;-70
2022/10/21 06:14:31;;;;;;;16.38;10.15;;;;;;;4.60;73.43;95769.47;5090374;28;20110;-70
2022/10/21 06:16:56;;;;;;;15.80;10.93;;;;;;;4.70;73.37;95765.56;5092770;28;20028;-70
2022/10/21 06:19:22;;;;;;;18.55;12.23;;;;;;;4.73;74.52;95777.47;5092248;28;20109;-70
2022/10/21 06:21:47;;;;;;;16.50;11.80;;;;;;;4.77;74.48;95759.25;5093374;28;20027;-70
2022/10/21 06:24:13;;;;;;;21.38;14.35;;;;;;;5.41;73.85;95764.91;5093215;28;20024;-70
2022/10/21 06:26:38;;;;;;;20.80;14.07;;;;;;;5.96;72.45;95770.00;5074793;28;20105;-70
2022/10/21 06:29:03;;;;;;;25.90;15.35;;;;;;;6.79;69.55;95773.53;5091262;28;20058;-70
2022/10/21 06:31:29;;;;;;;28.13;17.65;;;;;;;7.32;67.26;95773.22;5074982;28;20097;-70
2022/10/21 06:33:54;;;;;;;26.45;16.00;;;;;;;7.91;66.04;95773.41;5075221;28;20024;-70
2022/10/21 06:36:20;;;;;;;21.50;15.05;;;;;;;8.50;64.06;95774.28;5091822;28;20032;-70
2022/10/21 06:38:45;;;;;;;26.00;14.98;;;;;;;8.92;62.02;95761.44;5092916;28;20028;-70
2022/10/21 06:41:12;;;;;;;25.92;15.43;;;;;;;9.47;60.72;95780.50;5092973;28;20028;-70
2022/10/21 06:43:37;;;;;;;27.55;15.15;;;;;;;9.74;59.50;95772.72;5091667;28;20559;-70
2022/10/21 06:46:04;;;;;;;21.75;15.40;;;;;;;10.26;58.52;95777.13;5058085;28;20039;-70
2022/10/21 06:48:30;;;;;;;22.30;14.52;;;;;;;10.64;57.29;95769.38;5091525;28;20143;-71
2022/10/21 06:51:06;;;;;;;18.55;13.13;;;;;;;11.07;55.79;95774.22;5057944;28;20032;-70
2022/10/21 06:53:32;;;;;;;19.02;12.98;;;;;;;11.31;55.17;95773.44;5091778;28;20032;-70
2022/10/21 06:56:03;;;;;;;20.77;12.73;;;;;;;11.80;53.52;95780.34;5057953;28;20508;-71
2022/10/21 06:58:29;;;;;;;20.67;12.90;;;;;;;11.90;53.26;95770.97;5074666;28;20030;-71
2022/10/21 07:00:54;;;;;;;24.17;13.40;;;;;;;11.85;53.35;95784.31;5092536;28;20028;-71
2022/10/21 07:03:20;;;;;;;19.80;12.90;;;;;;;11.73;53.87;95784.31;5092890;28;20028;-70
2022/10/21 07:05:45;;;;;;;23.27;13.55;;;;;;;11.85;53.44;95780.84;5074272;28;20028;-71
2022/10/21 07:08:10;;;;;;;26.33;15.75;;;;;;;11.89;53.35;95779.69;5091185;28;20055;-71
2022/10/21 07:10:36;;;;;;;19.05;13.00;;;;;;;11.99;52.73;95772.88;5092388;28;20413;-71
2022/10/21 07:13:01;;;;;;;21.05;12.35;;;;;;;12.95;50.71;95777.84;5092118;28;20035;-71
2022/10/21 07:15:27;;;;;;;20.50;13.00;;;;;;;13.88;48.73;95778.47;5092335;28;20077;-71
2022/10/21 07:17:58;;;;;;;25.45;12.55;;;;;;;14.53;47.00;95767.81;5092204;28;20047;-71
2022/10/21 07:20:23;;;;;;;20.88;12.45;;;;;;;14.08;46.79;95770.66;5092263;28;20099;-71
2022/10/21 07:22:48;;;;;;;17.65;11.95;;;;;;;13.82;47.68;95769.34;5091023;28;20047;-71
2022/10/21 07:25:14;;;;;;;14.98;11.93;;;;;;;13.68;48.33;95773.06;5092122;28;20077;-71
2022/10/21 07:27:39;;;;;;;16.98;11.55;;;;;;;13.63;48.56;95769.97;5090894;28;20059;-71
2022/10/21 07:30:05;;;;;;;18.05;12.20;;;;;;;13.12;49.83;95773.94;5073844;28;20032;-71
2022/10/21 07:32:31;;;;;;;16.88;11.80;;;;;;;12.45;51.41;95764.28;5090659;28;20105;-73
2022/10/21 07:34:56;;;;;;;17.95;10.93;;;;;;;12.19;52.31;95778.41;5091888;28;20089;-73
2022/10/21 07:37:22;;;;;;;18.15;11.70;;;;;;;11.88;53.20;95782.44;5090759;28;20044;-73
2022/10/21 07:39:47;;;;;;;15.20;10.77;;;;;;;11.42;54.53;95781.31;5090533;28;20050;-73
2022/10/21 07:42:13;;;;;;;16.42;10.75;;;;;;;11.11;55.69;95773.06;5073638;28;20036;-73
2022/10/21 07:44:38;;;;;;;19.88;11.82;;;;;;;10.91;56.54;95778.81;5090531;28;20031;-73
2022/10/21 07:47:03;;;;;;;14.40;11.23;;;;;;;10.82;56.94;95777.69;5090306;28;20093;-73
2022/10/21 07:49:29;;;;;;;16.88;11.60;;;;;;;10.80;57.51;95776.13;5091990;28;20028;-73
2022/10/21 07:51:54;;;;;;;15.48;10.75;;;;;;;10.62;58.00;95780.81;5090269;28;20516;-73
2022/10/21 07:54:20;;;;;;;20.70;12.10;;;;;;;10.69;58.29;95762.09;5073577;28;20506;-73
2022/10/21 07:56:47;;;;;;;16.45;11.40;;;;;;;11.61;56.13;95775.63;5090492;28;20047;-73
2022/10/21 07:59:13;;;;;;;16.55;11.35;;;;;;;11.99;54.70;95767.69;5073378;28;20451;-73
2022/10/21 08:01:40;;;;;;;14.60;10.65;;;;;;;11.68;55.97;95766.44;5073556;28;20028;-73
2022/10/21 08:04:05;;;;;;;14.43;10.85;;;;;;;12.11;54.99;95757.31;5090013;28;20032;-73
2022/10/21 08:06:31;;;;;;;17.35;11.82;;;;;;;11.96;55.15;95762.69;5073307;28;20474;-73
2022/10/21 08:08:56;;;;;;;17.17;11.20;;;;;;;12.06;55.23;95761.09;5073177;28;20084;-73
2022/10/21 08:11:26;;;;;;;15.68;10.88;;;;;;;12.27;54.39;95757.84;5073092;28;20036;-72
2022/10/21 08:13:52;;;;;;;15.70;11.05;;;;;;;12.51;53.17;95737.75;5089983;28;20023;-73
2022/10/21 08:16:17;;;;;;;15.35;10.98;;;;;;;12.66;52.85;95751.38;5073087;28;20028;-73
2022/10/21 08:18:43;;;;;;;14.07;10.88;;;;;;;12.83;52.38;95749.25;5073283;28;20031;-73
2022/10/21 08:21:08;;;;;;;16.83;9.95;;;;;;;12.92;52.52;95749.38;5089865;28;20028;-73
2022/10/21 08:23:34;;;;;;;14.68;10.70;;;;;;;13.00;51.58;95740.13;5089829;28;20032;-73
2022/10/21 08:26:00;;;;;;;14.98;10.75;;;;;;;12.72;52.79;95750.09;5089916;28;20016;-73
2022/10/21 08:28:26;;;;;;;18.15;11.10;;;;;;;12.45;53.27;95735.63;5088526;28;20417;-73
2022/10/21 08:30:51;;;;;;;20.02;10.52;;;;;;;12.46;53.92;95747.69;5089076;28;20562;-73
2022/10/21 08:33:17;;;;;;;14.43;10.57;;;;;;;12.85;52.97;95753.41;5089862;28;20068;-73
2022/10/21 08:35:42;;;;;;;15.23;9.88;;;;;;;13.21;52.12;95741.06;5089819;28;20028;-73
2022/10/21 08:38:08;;;;;;;13.10;10.02;;;;;;;13.17;52.37;95731.81;5091280;28;20152;-73
2022/10/21 08:40:46;;;;;;;14.82;9.93;;;;;;;13.49;51.51;95734.53;5072914;28;20020;-72
2022/10/21 08:43:22;;;;;;;14.35;9.70;;;;;;;13.71;50.78;95744.09;5074213;28;20507;-73
2022/10/21 08:45:52;;;;;;;16.00;9.82;;;;;;;13.77;50.58;95735.75;5089641;28;20111;-73
2022/10/21 08:48:21;;;;;;;14.43;9.52;;;;;;;13.83;50.50;95731.81;5072839;28;20079;-73
2022/10/21 08:50:48;;;;;;;16.75;9.73;;;;;;;13.88;50.29;95719.22;5072940;28;20085;-73
2022/10/21 08:53:24;;;;;;;13.88;9.23;;;;;;;14.07;49.68;95728.97;5073050;28;20032;-73
2022/10/21 08:55:49;;;;;;;18.13;12.50;;;;;;;14.05;49.63;95702.16;5089541;28;20028;-73
2022/10/21 08:58:20;;;;;;;20.52;12.63;;;;;;;14.16;49.42;95723.00;5056099;28;20032;-73
2022/10/21 09:00:50;;;;;;;13.32;10.02;;;;;;;14.21;48.99;95713.00;5073336;28;20024;-73
2022/10/21 09:03:24;;;;;;;21.38;14.82;;;;;;;14.37;49.04;95722.16;5056396;28;20134;-73
2022/10/21 09:06:06;;;;;;;20.48;13.63;;;;;;;14.39;49.00;95722.84;5089396;28;20864;-73
2022/10/21 09:08:34;;;;;;;14.35;10.55;;;;;;;14.53;47.63;95714.72;5089517;28;20640;-73
2022/10/21 09:11:03;;;;;;;13.52;10.23;;;;;;;14.42;48.22;95705.13;5090510;28;20073;-73
2022/10/21 09:13:45;;;;;;;14.75;10.68;;;;;;;14.48;48.45;95714.25;5073149;28;20176;-73
2022/10/21 09:16:27;;;;;;;16.45;9.73;;;;;;;14.38;48.95;95714.19;5072740;28;20020;-73
2022/10/21 09:19:12;;;;;;;12.43;9.05;;;;;;;14.50;47.83;95707.94;5072670;28;20093;-73
2022/10/21 09:21:58;;;;;;;12.40;9.18;;;;;;;14.53;48.27;95702.47;5090689;28;20043;-73
2022/10/21 09:24:26;;;;;;;13.05;8.90;;;;;;;13.91;48.63;95702.47;5074753;28;20028;-73
2022/10/21 09:26:51;;;;;;;12.27;9.55;;;;;;;14.08;49.00;95700.09;5089151;28;20036;-73
2022/10/21 09:29:29;;;;;;;11.75;9.30;;;;;;;14.10;48.77;95694.78;5089332;28;20035;-73
2022/10/21 09:31:58;;;;;;;11.82;9.07;;;;;;;13.73;49.45;95684.72;5088982;28;20114;-73
2022/10/21 09:34:26;;;;;;;12.23;8.70;;;;;;;13.62;49.50;95696.06;5072830;28;20052;-73
2022/10/21 09:36:52;;;;;;;11.90;8.63;;;;;;;13.55;50.08;95675.78;5090634;28;20109;-73
2022/10/21 09:39:20;;;;;;;11.20;8.88;;;;;;;13.93;49.44;95677.03;5072405;28;20477;-73
2022/10/21 09:41:50;;;;;;;17.85;9.05;;;;;;;14.15;49.16;95679.53;5058216;28;20036;-73
2022/10/21 09:44:17;;;;;;;13.43;8.57;;;;;;;14.24;48.52;95670.94;5076342;28;20023;-73
2022/10/21 09:47:17;;;;;;;13.23;9.25;;;;;;;14.35;48.44;95670.03;5076007;28;20115;-73
2022/10/21 09:49:44;;;;;;;10.20;8.88;;;;;;;14.33;48.37;95656.25;5091623;28;20761;-73
2022/10/21 09:52:10;;;;;;;11.50;8.60;;;;;;;14.53;48.42;95672.88;5057952;28;20036;-73
2022/10/21 09:54:37;;;;;;;11.05;8.45;;;;;;;14.48;48.13;95667.19;5057805;28;20129;-73
2022/10/21 09:57:13;;;;;;;14.10;10.32;;;;;;;14.54;48.21;95674.53;5074472;28;20044;-73
2022/10/21 09:59:51;;;;;;;12.38;9.48;;;;;;;14.33;48.59;95678.94;5058004;28;20040;-73
2022/10/21 10:02:17;;;;;;;15.38;10.00;;;;;;;14.39;48.33;95670.59;5091242;28;20036;-73
2022/10/21 10:04:42;;;;;;;11.35;9.00;;;;;;;14.53;48.22;95676.31;5057931;28;20048;-73
2022/10/21 10:07:32;;;;;;;11.48;8.82;;;;;;;14.37;48.19;95685.56;5074275;28;20044;-73
2022/10/21 10:09:57;;;;;;;15.57;9.63;;;;;;;14.15;49.09;95673.47;5071157;28;20044;-73
2022/10/21 10:12:24;;;;;;;11.35;8.85;;;;;;;14.17;48.96;95679.41;5057312;28;20105;-73
2022/10/21 10:14:50;;;;;;;14.98;9.68;;;;;;;14.34;48.53;95662.31;5091103;28;20211;-73
2022/10/21 10:17:18;;;;;;;13.05;8.88;;;;;;;14.46;48.30;95671.75;5057401;28;20107;-73
2022/10/21 10:19:43;;;;;;;9.88;8.50;;;;;;;14.59;47.99;95656.66;5091464;28;20552;-73
2022/10/21 10:22:13;;;;;;;13.57;9.02;;;;;;;14.83;47.15;95666.00;5058479;28;20409;-73
2022/10/21 10:24:39;;;;;;;13.13;9.50;;;;;;;14.78;47.50;95658.53;5092141;28;20085;-73
2022/10/21 10:27:13;;;;;;;14.15;10.10;;;;;;;14.66;48.06;95663.03;5075260;28;20036;-73
2022/10/21 10:29:39;;;;;;;13.15;9.57;;;;;;;14.49;47.91;95664.44;5075340;28;20032;-73
2022/10/21 10:32:05;;;;;;;12.68;9.43;;;;;;;14.44;48.17;95665.81;5075065;28;20028;-73
2022/10/21 10:34:35;;;;;;;12.63;9.27;;;;;;;14.45;48.30;95657.00;5074948;28;20516;-73
2022/10/21 10:37:25;;;;;;;12.88;9.88;;;;;;;14.71;47.82;95650.41;5075153;28;20095;-73
2022/10/21 10:39:55;;;;;;;13.77;9.43;;;;;;;14.75;47.63;95651.78;5092141;28;20097;-73
2022/10/21 10:42:31;;;;;;;16.00;9.70;;;;;;;14.45;47.70;95643.91;5075096;28;20028;-73
2022/10/21 10:44:59;;;;;;;15.18;12.05;;;;;;;14.58;47.71;95641.13;5075729;28;20485;-74
2022/10/21 10:47:37;;;;;;;704.33;459.73;;;;;;;14.81;47.97;95641.75;5058215;28;20378;-73
2022/10/21 10:50:02;;;;;;;765.03;460.90;;;;;;;15.03;47.03;95625.84;5075014;28;20036;-73
2022/10/21 10:52:28;;;;;;;431.02;218.30;;;;;;;15.02;47.08;95629.44;5090828;28;20035;-73
2022/10/21 10:55:13;;;;;;;29.52;19.17;;;;;;;14.92;47.08;95615.50;5092961;28;20032;-73
2022/10/21 10:57:39;;;;;;;149.13;70.35;;;;;;;15.13;47.22;95613.63;5091462;28;20153;-73
2022/10/21 11:00:08;;;;;;;176.82;102.90;;;;;;;15.07;46.82;95616.78;5091340;28;20558;-73
2022/10/21 11:02:42;;;;;;;163.88;95.65;;;;;;;15.10;46.93;95603.44;5091256;28;20028;-73
2022/10/21 11:05:26;;;;;;;18.75;13.20;;;;;;;14.98;46.68;95597.47;5091293;28;20519;-73
2022/10/21 11:07:56;;;;;;;119.97;63.60;;;;;;;15.15;47.09;95608.22;5075457;28;20457;-73
2022/10/21 11:10:33;;;;;;;33.03;22.53;;;;;;;15.15;46.67;95601.19;5075020;28;20020;-73
2022/10/21 11:13:00;;;;;;;253.88;148.70;;;;;;;15.32;46.56;95598.88;5092563;28;20111;-73
2022/10/21 11:15:49;;;;;;;51.08;31.90;;;;;;;15.32;46.47;95580.56;5091086;28;20028;-73
2022/10/21 11:18:18;;;;;;;27.15;12.27;;;;;;;15.37;46.13;95583.59;5076231;28;20044;-73
2022/10/21 11:21:08;;;;;;;10.45;8.70;;;;;;;15.30;46.16;95579.88;5092224;28;20065;-73
2022/10/21 11:24:00;;;;;;;16.52;9.60;;;;;;;15.33;46.17;95584.84;5091078;28;20036;-73
2022/10/21 11:26:57;;;;;;;58.03;32.78;;;;;;;15.58;45.84;95573.00;5060367;28;20478;-73
2022/10/21 11:29:48;;;;;;;28.92;18.75;;;;;;;15.68;45.60;95565.09;5072959;28;20075;-73
2022/10/21 11:32:38;;;;;;;26.08;15.85;;;;;;;15.79;45.14;95564.97;5080744;28;20566;-73